Marshalltown, Iowa
Current Conditions -  °F | °C
As of 12:53 PM on Thursday 23 Oct 2014 (Local Time) from KMIW Reporting Station
Overcast Overcast  
Wind Chill: 14°   Ceiling: 700
Heat Index: 14°   Visibility: 10mi
Dew Point: 13°   Wind: 5mph
Humidity: 90%   Direction: 220°SW
Pressure: 30.04"   Gusts: NA
Location:  42.05°N, 92.91°W
Report Text: KMIW 231753Z AUTO 22004KT 10SM OVC007 14/13 A3004 RMK AO2 SLP171 60000 T01440128 10144 20089 58001
Loading
Personal Weather Stations






























Interactive Weather Map
Tropical Storm Tracking
New forecast layout! Learn more

10-Day Weather Forecast

Advertisements
Track Severe Weather on mobile